Whangarei, New Zealand
Current Conditions -  °F | °C
As of 1:30 PM on Wednesday 26 Nov 2014 (Local Time) from NZAA Reporting Station
Overcast Overcast  
Wind Chill: 64°   Ceiling: 3000
Heat Index: 64°   Visibility: 6mi
Dew Point: 59°   Wind: 12mph
Humidity: 83%   Direction: 230°SW
Pressure: 29.97"   Gusts: NA
Location:  35.72°S, 174.32°E
Report Text: NZAA 260130Z AUTO 23010KT 9999 FEW009/// BKN030/// OVC037///18/15 Q1015 TEMPO TL0200 BKN009
Loading
Personal Weather Stations






























Interactive Weather Map New forecast layout! Learn more

10-Day Weather Forecast

Advertisements
Track Severe Weather on mobile